Latest Weather Observations for Deniliquin

IDN60801

Issued at 4:05 pm EDT Saturday 1 November 2014 (issued every 30 minutes, with the page automatically refreshed every 10 minutes)

About weather observations | Map of weather stations | Latest weather observations for NSW | Other Formats
Station Details ID: 074258 Name: DENILIQUIN AIRPORT AWS Lat: -35.56 Lon: 144.95 Height: 94.0 m
Data from the previous 72 hours. | See also: Recent months at Deniliquin
Date/Time
EDT
Temp
°C
App
Temp
°C
Dew
Point
Rel
Hum
%
Delta-T
°C
Wind Press
QNH
hPa
Press
MSL
hPa
Rain
since 9 am
mm
Dir
 
Spd
km/h
Gust
km/h
Spd
kts
Gust
kts
01/04:01pm 19.5 9.3 0.0 27 8.6 WSW 43 61 23 33 1009.6 1009.3 0.0
01/04:00pm 19.5 9.3 1.0 29 8.4 WSW 44 61 24 33 1009.6 1009.3 0.0
01/03:44pm 18.5 8.3 -0.3 28 8.2 WSW 43 61 23 33 1009.5 1009.2 0.0
01/03:30pm 20.0 9.4 -1.7 23 9.3 WSW 44 57 24 31 1009.3 1009.0 0.0
01/03:03pm 19.8 9.8 0.8 28 8.6 W 43 61 23 33 1009.1 1008.8 0.0
01/03:00pm 18.9 9.0 1.4 31 7.9 W 43 59 23 32 1009.2 1008.9 0.0
01/02:30pm 19.7 10.6 1.7 30 8.2 W 39 56 21 30 1009.0 1008.7 0.0
01/02:01pm 19.5 9.1 1.9 31 8.1 WSW 46 65 25 35 1008.7 1008.4 0.0
01/02:00pm 19.9 9.2 2.3 31 8.2 WSW 48 65 26 35 1008.7 1008.4 0.0
01/01:50pm 19.6 9.6 1.1 29 8.4 W 43 61 23 33 1008.6 1008.3 0.0
01/01:30pm 19.6 9.8 2.5 32 7.9 W 43 56 23 30 1008.5 1008.2 0.0
01/01:06pm 19.0 9.7 2.8 34 7.5 W 41 59 22 32 1008.4 1008.1 0.0
01/01:00pm 19.4 10.1 2.7 33 7.8 WSW 41 57 22 31 1008.4 1008.1 0.0
01/12:30pm 18.5 8.5 1.9 33 7.6 W 44 63 24 34 1008.1 1007.8 0.0
01/12:06pm 18.5 10.1 5.7 43 6.3 W 39 63 21 34 1007.8 1007.5 0.0
01/12:00pm 17.9 9.6 7.6 51 5.2 WSW 41 54 22 29 1007.8 1007.5 0.0
01/11:30am 18.5 11.5 11.3 63 3.9 WSW 39 54 21 29 1007.6 1007.3 0.0
01/11:18am 17.9 11.4 10.5 62 4.0 WSW 35 54 19 29 1007.5 1007.2 0.0
01/11:00am 16.4 9.2 10.7 69 3.1 W 39 56 21 30 1007.6 1007.3 0.0
01/10:30am 17.0 11.7 12.5 75 2.5 W 32 43 17 23 1006.9 1006.8 0.0
01/10:00am 14.9 10.5 12.8 87 1.2 W 28 37 15 20 1006.3 1006.1 0.0
01/09:30am 14.2 9.7 12.6 90 0.9 W 28 41 15 22 1005.9 1005.7 0.0
01/09:00am 13.9 10.1 12.5 91 0.8 W 24 35 13 19 1006.0 1005.8 2.2
01/08:30am 14.4 10.7 12.8 90 0.9 W 24 33 13 18 1005.5 1005.3 1.2
01/08:00am 14.8 8.9 12.5 86 1.3 WSW 35 43 19 23 1004.5 1004.3 1.0
01/07:30am 14.9 12.4 13.4 91 0.8 W 19 30 10 16 1003.9 1003.8 1.0
01/07:00am 15.1 12.1 12.6 85 1.4 W 20 28 11 15 1003.3 1003.2 0.6
01/06:30am 18.6 14.2 9.1 54 5.0 W 22 35 12 19 1003.3 1003.2 0.0
01/06:00am 18.5 15.9 7.6 49 5.6 WSW 11 15 6 8 1001.8 1001.7 0.0
01/05:30am 19.3 15.8 7.4 46 6.1 WSW 15 20 8 11 1001.6 1001.5 0.0
01/05:00am 20.1 16.1 6.8 42 6.8 SW 17 26 9 14 1000.9 1000.8 0.0
01/04:30am 21.7 14.6 5.6 35 8.1 WSW 32 44 17 24 1000.7 1000.6 0.0
01/04:02am 22.9 14.0 4.9 31 9.0 W 41 61 22 33 1000.8 1000.7 0.0
01/04:00am 23.0 14.8 5.0 31 9.1 W 37 54 20 29 1000.6 1000.5 0.0
01/03:30am 23.9 17.6 3.8 27 9.9 W 26 35 14 19 999.3 999.2 0.0
01/03:00am 24.6 19.5 0.8 21 11.2 W 17 20 9 11 998.8 998.7 0.0
01/02:30am 26.8 19.2 -2.0 15 13.0 WNW 28 39 15 21 998.6 998.5 0.0
01/02:00am 25.8 19.9 -1.1 17 12.3 N 20 28 11 15 997.5 997.3 0.0
01/01:30am 26.3 19.5 -1.5 16 12.7 N 24 35 13 19 997.8 997.7 0.0
01/01:00am 26.0 20.0 -1.7 16 12.6 N 20 32 11 17 998.2 998.1 0.0
01/12:30am 25.6 19.5 -2.1 16 12.4 N 20 30 11 16 998.8 998.7 0.0
01/12:00am 25.6 19.4 -2.9 15 12.6 N 20 30 11 16 999.3 999.2 0.0
 
Date/Time
EDT
Temp
°C
App
Temp
°C
Dew
Point
Rel
Hum
%
Delta-T
°C
Wind Press
QNH
hPa
Press
MSL
hPa
Rain
since 9 am
mm
Dir
 
Spd
km/h
Gust
km/h
Spd
kts
Gust
kts
31/11:30pm 25.5 19.6 -2.1 16 12.3 N 19 26 10 14 999.7 999.6 0.0
31/11:00pm 25.0 19.7 -0.9 18 11.8 N 17 19 9 10 999.9 999.8 0.0
31/10:30pm 25.1 20.1 -0.9 18 11.8 N 15 17 8 9 1000.1 1000.0 0.0
31/10:00pm 24.5 20.2 0.8 21 11.1 N 13 17 7 9 1000.4 1000.3 0.0
31/09:30pm 22.8 19.1 2.3 26 9.7 N 11 13 6 7 1000.4 1000.3 0.0
31/09:00pm 24.1 20.7 1.7 23 10.7 NNE 9 11 5 6 1000.4 1000.3 0.0
31/08:30pm 25.2 21.3 1.3 21 11.3 N 11 13 6 7 1000.5 1000.4 0.0
31/08:00pm 27.9 24.4 -1.1 15 13.5 N 7 9 4 5 1000.6 1000.5 0.0
31/07:30pm 29.2 24.6 -1.0 14 14.1 NNW 13 15 7 8 1000.7 1000.6 0.0
31/07:00pm 31.7 26.9 -2.3 11 15.9 NW 13 17 7 9 1000.8 1000.7 0.0
31/06:30pm 33.3 26.1 -5.4 8 17.3 NNW 24 32 13 17 1001.0 1000.9 0.0
31/06:00pm 34.0 28.2 -4.9 8 17.8 NW 17 24 9 13 1001.3 1001.2 0.0
31/05:30pm 34.0 26.8 -4.9 8 17.7 NNW 24 32 13 17 1001.5 1001.4 0.0
31/05:00pm 34.4 26.3 -6.3 7 18.2 NNW 28 37 15 20 1001.8 1001.7 0.0
31/04:47pm 35.3 26.9 -5.7 7 18.6 NNW 30 50 16 27 1001.9 1001.8 0.0
31/04:30pm 33.9 26.2 -6.7 7 17.9 NW 26 39 14 21 1002.2 1002.1 0.0
31/04:00pm 34.2 26.5 -6.5 7 18.1 NW 26 37 14 20 1002.6 1002.5 0.0
31/03:30pm 34.2 25.9 -4.7 8 17.8 NNW 30 41 16 22 1003.1 1003.0 0.0
31/03:00pm 35.5 27.9 -2.2 9 18.2 NNW 28 46 15 25 1003.5 1003.4 0.0
31/02:59pm 35.0 27.2 -4.1 8 18.1 NNW 28 46 15 25 1003.5 1003.4 0.0
31/02:30pm 34.6 26.7 -4.4 8 17.9 NW 28 39 15 21 1004.2 1004.1 0.0
31/02:00pm 33.4 26.5 -2.3 10 16.9 NNW 24 35 13 19 1004.9 1004.7 0.0
31/01:30pm 32.1 26.2 -2.0 11 16.0 N 19 26 10 14 1005.5 1005.3 0.0
31/01:00pm 31.4 26.4 -1.4 12 15.5 NNW 15 24 8 13 1006.3 1006.1 0.0
31/12:30pm 31.5 25.7 -1.3 12 15.5 N 19 26 10 14 1007.0 1006.9 0.0
31/12:00pm 30.6 26.8 1.9 16 14.3 NE 11 17 6 9 1007.7 1007.6 0.0
31/11:30am 28.6 24.3 1.2 17 13.3 NE 13 19 7 10 1008.2 1008.1 0.0
31/11:00am 28.0 22.6 1.5 18 12.9 ENE 19 24 10 13 1008.6 1008.5 0.0
31/10:30am 27.7 22.3 1.2 18 12.8 NE 19 24 10 13 1009.0 1008.9 0.0
31/10:00am 27.1 22.5 1.5 19 12.4 NE 15 20 8 11 1009.4 1009.3 0.0
31/09:30am 24.7 19.9 2.8 24 10.6 NE 17 20 9 11 1009.9 1009.8 0.0
31/09:00am 24.0 19.8 3.9 27 9.9 NE 15 20 8 11 1010.3 1010.2 0.0
31/08:30am 21.0 17.1 3.2 31 8.5 NE 13 17 7 9 1010.4 1010.3 0.0
31/08:00am 18.7 15.7 4.1 38 7.0 NE 9 13 5 7 1010.6 1010.5 0.0
31/07:30am 15.6 13.4 5.2 50 5.0 ENE 6 7 3 4 1010.6 1010.5 0.0
31/07:00am 11.7 9.0 5.6 66 2.8 NE 9 9 5 5 1010.7 1010.6 0.0
31/06:30am 9.5 6.4 3.5 66 2.6 E 9 9 5 5 1010.5 1010.4 0.0
31/06:00am 10.3 7.5 3.1 61 3.1 NE 7 9 4 5 1010.3 1010.2 0.0
31/05:30am 9.3 6.0 2.4 62 2.9 ENE 9 11 5 6 1010.2 1010.1 0.0
31/05:00am 9.6 8.0 2.2 60 3.1 CALM 0 0 0 0 1010.3 1010.2 0.0
31/04:30am 11.0 9.4 2.6 56 3.6 CALM 0 0 0 0 1010.5 1010.4 0.0
31/04:00am 11.4 9.8 2.7 55 3.8 CALM 0 0 0 0 1010.4 1010.3 0.0
31/03:30am 11.5 9.9 2.5 54 3.9 CALM 0 0 0 0 1010.4 1010.3 0.0
31/03:00am 11.6 9.9 2.1 52 4.1 CALM 0 0 0 0 1010.4 1010.3 0.0
31/02:30am 12.2 10.6 2.4 51 4.3 CALM 0 0 0 0 1010.6 1010.5 0.0
31/02:00am 12.2 10.2 2.1 50 4.4 SSE 2 6 1 3 1010.8 1010.7 0.0
31/01:30am 12.5 9.7 2.1 49 4.5 SSE 6 7 3 4 1011.2 1011.1 0.0
31/01:00am 13.8 12.4 3.3 49 4.7 CALM 0 0 0 0 1011.6 1011.5 0.0
31/12:30am 14.2 12.3 0.8 40 5.7 CALM 0 0 0 0 1011.9 1011.8 0.0
31/12:00am 15.1 13.3 0.9 38 6.2 CALM 0 0 0 0 1011.9 1011.8 0.0
 
Date/Time
EDT
Temp
°C
App
Temp
°C
Dew
Point
Rel
Hum
%
Delta-T
°C
Wind Press
QNH
hPa
Press
MSL
hPa
Rain
since 9 am
mm
Dir
 
Spd
km/h
Gust
km/h
Spd
kts
Gust
kts
30/11:30pm 15.8 13.8 -0.4 33 6.9 CALM 0 0 0 0 1011.9 1011.8 0.0
30/11:00pm 15.8 13.7 -0.8 32 7.0 CALM 0 4 0 2 1011.9 1011.8 0.0
30/10:30pm 16.3 13.9 -0.4 32 7.1 SSW 2 6 1 3 1012.0 1011.9 0.0
30/10:00pm 17.0 13.2 -0.7 30 7.5 SSW 9 11 5 6 1012.0 1011.9 0.0
30/09:30pm 17.6 13.8 -1.1 28 7.9 SW 9 11 5 6 1011.9 1011.8 0.0
30/09:00pm 19.2 14.8 -2.4 23 9.1 SW 11 13 6 7 1011.8 1011.7 0.0
30/08:30pm 20.2 16.1 -2.8 21 9.7 SW 9 11 5 6 1011.6 1011.5 0.0
30/08:00pm 21.9 16.3 -2.7 19 10.5 WSW 17 19 9 10 1011.4 1011.3 0.0
30/07:30pm 25.4 20.5 -3.1 15 12.5 W 13 17 7 9 1011.2 1011.1 0.0
30/07:00pm 27.6 21.1 -8.1 9 14.6 W 19 28 10 15 1011.2 1011.1 0.0
30/06:30pm 28.5 22.7 -4.8 11 14.5 W 17 28 9 15 1011.0 1010.9 0.0
30/06:00pm 29.0 22.3 -4.4 11 14.7 W 22 30 12 16 1011.0 1010.9 0.0
30/05:30pm 29.2 22.5 -4.3 11 14.8 W 22 32 12 17 1011.0 1010.9 0.0
30/05:00pm 29.4 22.5 -2.9 12 14.7 W 24 35 13 19 1011.0 1010.9 0.0
30/04:30pm 29.5 23.5 -1.8 13 14.5 W 20 37 11 20 1011.1 1011.0 0.0
30/04:00pm 29.7 23.2 -2.7 12 14.8 W 22 32 12 17 1011.3 1011.2 0.0
30/03:30pm 29.9 22.0 -5.0 10 15.3 W 28 39 15 21 1011.6 1011.5 0.0
30/03:16pm 29.8 22.0 -3.8 11 15.1 W 28 46 15 25 1011.7 1011.6 0.0
30/03:00pm 29.4 22.5 -2.9 12 14.7 W 24 35 13 19 1011.9 1011.8 0.0
30/02:30pm 28.9 21.2 -3.3 12 14.4 WNW 28 37 15 20 1012.2 1012.1 0.0
30/02:00pm 29.2 22.2 -3.1 12 14.6 W 24 35 13 19 1012.5 1012.4 0.0
30/01:30pm 28.3 22.7 0.1 16 13.4 WNW 19 35 10 19 1012.8 1012.7 0.0
30/01:00pm 28.3 22.8 1.7 18 13.0 WNW 20 33 11 18 1013.1 1013.0 0.0
30/12:30pm 27.8 22.2 1.3 18 12.8 WNW 20 35 11 19 1013.5 1013.4 0.0
30/12:00pm 26.9 21.1 2.1 20 12.1 WNW 22 32 12 17 1013.9 1013.8 0.0
30/11:30am 26.2 21.1 4.1 24 11.1 W 20 32 11 17 1014.2 1014.1 0.0
30/11:00am 25.1 21.1 4.8 27 10.2 WNW 15 26 8 14 1014.6 1014.5 0.0
30/10:30am 23.9 20.3 4.8 29 9.6 W 13 19 7 10 1015.0 1014.9 0.0
30/10:00am 22.8 19.2 4.8 31 8.9 WNW 13 17 7 9 1015.1 1015.0 0.0
30/09:30am 21.2 18.1 5.5 36 7.8 NW 11 17 6 9 1015.1 1015.0 0.0
30/09:00am 19.5 16.7 5.2 39 7.0 WNW 9 13 5 7 1015.1 1015.0 0.0
30/08:30am 17.9 15.2 5.5 44 6.0 W 9 11 5 6 1014.9 1014.8 0.0
30/08:00am 16.6 14.3 4.9 46 5.6 W 6 9 3 5 1014.6 1014.5 0.0
30/07:30am 14.0 13.4 7.3 64 3.3 CALM 0 0 0 0 1014.6 1014.5 0.0
30/07:00am 11.1 9.2 6.6 74 2.1 N 6 7 3 4 1014.3 1014.2 0.0
30/06:30am 9.7 7.6 5.9 77 1.8 N 6 7 3 4 1014.1 1014.0 0.0
30/06:00am 10.1 8.3 5.3 72 2.2 NNE 4 9 2 5 1013.8 1013.7 0.0
30/05:30am 10.4 8.6 5.4 71 2.3 NNE 4 7 2 4 1013.6 1013.5 0.0
30/05:00am 10.9 8.9 6.1 72 2.2 NNE 6 7 3 4 1013.5 1013.4 0.0
30/04:30am 11.0 8.8 6.4 73 2.2 NNE 7 9 4 5 1013.6 1013.5 0.0
30/04:00am 11.3 10.4 6.2 71 2.4 CALM 0 0 0 0 1013.8 1013.7 0.0
30/03:30am 11.5 10.5 5.4 66 2.8 CALM 0 0 0 0 1014.0 1013.9 0.0
30/03:00am 11.4 10.3 5.3 66 2.8 CALM 0 0 0 0 1014.0 1013.9 0.0
30/02:30am 11.4 9.1 4.8 64 3.0 W 6 6 3 3 1014.2 1014.1 0.0
30/02:00am 12.6 10.9 5.8 63 3.2 NNW 4 6 2 3 1014.2 1014.1 0.0
30/01:30am 13.6 12.5 6.9 64 3.3 N 2 6 1 3 1014.5 1014.4 0.0
30/01:00am 12.4 10.2 5.3 62 3.3 N 6 7 3 4 1014.6 1014.5 0.0
30/12:30am 13.0 12.0 5.4 60 3.6 CALM 0 0 0 0 1014.8 1014.7 0.0
30/12:00am 12.7 9.8 4.9 59 3.6 S 9 17 5 9 1015.0 1014.9 0.0
 
Date/Time
EDT
Temp
°C
App
Temp
°C
Dew
Point
Rel
Hum
%
Delta-T
°C
Wind Press
QNH
hPa
Press
MSL
hPa
Rain
since 9 am
mm
Dir
 
Spd
km/h
Gust
km/h
Spd
kts
Gust
kts
29/11:30pm 13.9 12.9 5.8 58 3.9 CALM 0 0 0 0 1014.9 1014.8 0.0
29/11:00pm 14.0 12.9 5.1 55 4.2 CALM 0 0 0 0 1015.2 1015.1 0.0
29/10:30pm 14.7 13.6 5.0 52 4.6 CALM 0 0 0 0 1015.4 1015.3 0.0
29/10:00pm 15.6 14.5 4.9 49 5.1 CALM 0 0 0 0 1015.6 1015.4 0.0
29/09:30pm 17.1 14.9 5.1 45 5.8 N 6 6 3 3 1015.7 1015.6 0.0
29/09:00pm 17.7 15.0 3.6 39 6.6 W 7 9 4 5 1015.2 1015.1 0.0
29/08:30pm 18.1 14.9 3.2 37 6.9 WSW 9 11 5 6 1015.0 1014.9 0.0
29/08:00pm 19.3 15.7 3.1 34 7.6 WSW 11 13 6 7 1014.9 1014.8 0.0
29/07:30pm 22.4 18.5 3.5 29 9.1 WSW 13 15 7 8 1014.7 1014.6 0.0
29/07:00pm 24.3 19.6 3.0 25 10.3 WSW 17 22 9 12 1014.6 1014.5 0.0
29/06:30pm 25.0 20.2 2.4 23 10.9 W 17 20 9 11 1014.4 1014.3 0.0
29/06:00pm 25.3 21.3 2.7 23 11.0 W 13 20 7 11 1014.4 1014.3 0.0
29/05:30pm 24.9 20.1 2.4 23 10.9 WNW 17 28 9 15 1014.5 1014.4 0.0
29/05:00pm 25.2 20.5 3.2 24 10.8 WNW 17 28 9 15 1014.6 1014.5 0.0
29/04:30pm 25.1 21.1 3.1 24 10.8 WNW 13 30 7 16 1014.8 1014.7 0.0

Other Formats:

Comma delimited format used in spreadsheet applications
http://www.bom.gov.au/fwo/IDN60801/IDN60801.95869.axf

JavaScript Object Notation format (JSON) in row-major order
http://www.bom.gov.au/fwo/IDN60801/IDN60801.95869.json